Time;durP1;ratioP1;P1;durP2;ratioP2;P2;SDS_P1;SDS_P2;PMS_P1;PMS_P2;Temp;Humidity;BMP_temperature;BMP_pressure;BME280_temperature;BME280_humidity;BME280_pressure;Samples;Min_cycle;Max_cycle;Signal;HPM_P1;HPM_P2
2023/09/29 00:00:34;;;;;;;0.33;0.33;;;;;;;20.60;85.23;100547.06;5092535;28;20182;-80
2023/09/29 00:03:00;;;;;;;0.00;0.00;;;;;;;20.85;85.38;100574.34;5094128;28;20242;-79
2023/09/29 00:05:27;;;;;;;0.00;0.00;;;;;;;21.15;84.22;100571.53;5093582;28;20271;-79
2023/09/29 00:07:52;;;;;;;0.00;0.00;;;;;;;21.42;82.92;100577.81;5093445;28;20185;-79
2023/09/29 00:10:20;;;;;;;0.00;0.00;;;;;;;21.14;82.35;100553.25;5093529;28;20173;-79
2023/09/29 00:12:46;;;;;;;0.57;0.57;;;;;;;21.13;81.68;100549.69;5092875;28;20178;-79
2023/09/29 00:15:12;;;;;;;0.00;0.00;;;;;;;21.25;80.72;100554.19;5093394;28;20182;-79
2023/09/29 00:17:38;;;;;;;0.00;0.00;;;;;;;21.20;80.08;100554.50;5093366;28;20181;-79
2023/09/29 00:20:37;;;;;;;0.00;0.00;;;;;;;21.13;79.83;100555.25;5092013;28;20250;-80
2023/09/29 00:22:58;;;;;;;0.00;0.00;;;;;;;21.03;78.83;100548.38;5091003;28;20224;-79
2023/09/29 00:25:23;;;;;;;0.00;0.00;;;;;;;20.83;78.75;100532.25;5093099;28;20186;-80
2023/09/29 00:27:50;;;;;;;0.00;0.00;;;;;;;20.70;78.97;100535.28;5093140;28;20182;-79
2023/09/29 00:30:16;;;;;;;0.10;0.10;;;;;;;20.57;79.62;100536.72;5092926;28;20181;-80
2023/09/29 00:32:49;;;;;;;3.40;3.20;;;;;;;20.88;78.96;100551.38;5092708;28;20188;-79
2023/09/29 00:35:24;;;;;;;0.00;0.00;;;;;;;20.96;78.44;100539.16;5091732;28;20264;-80
2023/09/29 00:37:50;;;;;;;0.00;0.00;;;;;;;20.91;78.22;100529.19;5091591;28;20184;-78
2023/09/29 00:40:16;;;;;;;0.47;0.47;;;;;;;20.64;79.22;100524.88;5092850;28;20182;-79
2023/09/29 00:42:43;;;;;;;0.00;0.00;;;;;;;20.66;80.16;100533.63;5093867;28;20177;-79
2023/09/29 00:45:09;;;;;;;0.00;0.00;;;;;;;20.63;80.07;100521.31;5092992;28;20635;-79
2023/09/29 00:47:36;;;;;;;0.00;0.00;;;;;;;20.84;80.63;100536.66;5092858;28;20173;-79
2023/09/29 00:50:07;;;;;;;0.00;0.00;;;;;;;20.68;80.48;100529.28;5092411;28;20184;-81
2023/09/29 00:52:34;;;;;;;0.00;0.00;;;;;;;20.00;82.26;100499.81;5092973;28;20201;-80
2023/09/29 00:54:59;;;;;;;0.00;0.00;;;;;;;19.46;85.00;100470.41;5092619;28;20193;-80
2023/09/29 00:57:27;;;;;;;0.77;0.77;;;;;;;19.47;87.23;100496.94;5091298;28;20264;-79
2023/09/29 00:59:53;;;;;;;0.00;0.00;;;;;;;19.63;86.81;100498.81;5092330;28;20174;-79
2023/09/29 01:02:19;;;;;;;0.00;0.00;;;;;;;20.15;84.82;100509.94;5092151;28;20227;-79
2023/09/29 01:04:46;;;;;;;0.00;0.00;;;;;;;20.45;83.57;100509.97;5092454;28;20268;-80
2023/09/29 01:07:11;;;;;;;0.00;0.00;;;;;;;20.30;83.29;100499.84;5090920;28;20611;-79
2023/09/29 01:09:37;;;;;;;0.00;0.00;;;;;;;20.31;83.03;100503.41;5092578;28;20273;-81
2023/09/29 01:12:06;;;;;;;0.00;0.00;;;;;;;19.77;84.45;100474.09;5092546;28;20213;-81
2023/09/29 01:14:32;;;;;;;0.00;0.00;;;;;;;20.10;84.51;100510.25;5091268;28;20679;-79
2023/09/29 01:16:58;;;;;;;0.10;0.10;;;;;;;20.35;83.09;100505.06;5092519;28;20663;-79
2023/09/29 01:19:23;;;;;;;0.00;0.00;;;;;;;20.35;82.20;100507.03;5090673;28;20193;-79
2023/09/29 01:21:48;;;;;;;0.77;0.77;;;;;;;19.89;83.10;100480.22;5091515;28;20185;-79
2023/09/29 01:24:14;;;;;;;1.23;1.13;;;;;;;19.72;84.32;100482.75;5092385;28;20202;-79
2023/09/29 01:26:44;;;;;;;0.60;0.60;;;;;;;19.79;84.21;100491.16;5092163;28;20181;-79
2023/09/29 01:29:11;;;;;;;0.00;0.00;;;;;;;19.48;84.81;100481.91;5092191;28;20173;-79
2023/09/29 01:31:38;;;;;;;0.43;0.43;;;;;;;19.44;85.82;100496.91;5090256;28;20201;-79
2023/09/29 01:34:04;;;;;;;0.00;0.00;;;;;;;19.48;86.30;100500.53;5090745;28;20206;-79
2023/09/29 01:36:30;;;;;;;0.13;0.13;;;;;;;19.21;86.94;100478.28;5092094;28;20181;-79
2023/09/29 01:38:56;;;;;;;0.57;0.57;;;;;;;19.06;87.77;100481.19;5091016;28;20177;-79
2023/09/29 01:41:22;;;;;;;0.80;0.80;;;;;;;19.02;88.80;100489.44;5093205;28;20169;-79
2023/09/29 01:43:47;;;;;;;0.73;0.73;;;;;;;18.92;89.53;100476.97;5094556;28;20206;-79
2023/09/29 01:46:15;;;;;;;0.33;0.33;;;;;;;19.07;90.26;100504.94;5090612;28;20180;-79
2023/09/29 01:48:43;;;;;;;0.00;0.00;;;;;;;19.08;90.13;100498.22;5092826;28;20181;-79
2023/09/29 01:51:09;;;;;;;0.00;0.00;;;;;;;18.95;90.92;100501.19;5092700;28;20212;-79
2023/09/29 01:53:34;;;;;;;0.10;0.10;;;;;;;19.17;90.50;100507.91;5097670;28;20201;-79
2023/09/29 01:56:02;;;;;;;0.00;0.00;;;;;;;19.25;90.12;100514.38;5101021;28;20185;-80
2023/09/29 01:58:27;;;;;;;0.00;0.00;;;;;;;19.33;89.29;100507.78;5100820;28;20272;-80
2023/09/29 02:00:53;;;;;;;0.00;0.00;;;;;;;19.01;89.67;100494.16;5099163;28;20667;-79
2023/09/29 02:03:18;;;;;;;0.07;0.07;;;;;;;18.97;90.22;100509.91;5100514;28;20691;-81
2023/09/29 02:05:44;;;;;;;0.00;0.00;;;;;;;19.08;90.63;100512.06;5100474;28;20545;-80
2023/09/29 02:08:09;;;;;;;0.00;0.00;;;;;;;19.35;89.86;100521.28;5100150;28;20217;-80
2023/09/29 02:10:35;;;;;;;0.67;0.67;;;;;;;18.83;89.71;100489.47;5100119;28;20201;-79
2023/09/29 02:13:04;;;;;;;0.00;0.00;;;;;;;18.95;90.94;100514.19;5099155;28;20201;-80
2023/09/29 02:15:29;;;;;;;0.00;0.00;;;;;;;19.03;91.12;100521.50;5100403;28;20178;-80
2023/09/29 02:17:54;;;;;;;0.00;0.00;;;;;;;19.20;90.92;100523.78;5099019;28;20181;-80
2023/09/29 02:20:28;;;;;;;0.00;0.00;;;;;;;19.20;90.77;100521.00;5098545;28;20272;-80
2023/09/29 02:22:55;;;;;;;1.50;1.13;;;;;;;19.03;90.55;100513.19;5098074;28;20196;-79
2023/09/29 02:25:25;;;;;;;0.00;0.00;;;;;;;18.77;92.00;100507.53;5100001;28;20234;-80
2023/09/29 02:27:51;;;;;;;0.00;0.00;;;;;;;18.57;94.32;100501.97;5099703;28;20249;-80
2023/09/29 02:30:17;;;;;;;0.00;0.00;;;;;;;18.49;95.83;100513.22;5097774;28;20671;-80
2023/09/29 02:32:43;;;;;;;0.20;0.20;;;;;;;18.33;95.41;100491.16;5097687;28;20301;-80
2023/09/29 02:35:09;;;;;;;0.00;0.00;;;;;;;18.56;96.72;100522.50;5099411;28;20571;-80
2023/09/29 02:37:36;;;;;;;0.00;0.00;;;;;;;18.77;94.97;100522.16;5099631;28;20299;-80
2023/09/29 02:40:04;;;;;;;0.00;0.00;;;;;;;18.93;93.73;100528.41;5097764;28;20199;-80
2023/09/29 02:42:29;;;;;;;0.00;0.00;;;;;;;18.84;93.10;100522.31;5098086;28;20201;-80
2023/09/29 02:44:54;;;;;;;0.47;0.47;;;;;;;18.70;92.70;100510.97;5097909;28;20669;-79
2023/09/29 02:47:20;;;;;;;0.00;0.00;;;;;;;18.94;92.30;100524.47;5096708;28;20196;-79
2023/09/29 02:49:45;;;;;;;0.00;0.00;;;;;;;19.29;91.05;100529.91;5097003;28;20189;-81
2023/09/29 02:52:10;;;;;;;0.20;0.20;;;;;;;18.87;89.87;100484.78;5097609;28;20265;-79
2023/09/29 02:54:36;;;;;;;0.00;0.00;;;;;;;18.55;93.21;100496.00;5096781;28;21190;-79
2023/09/29 02:57:01;;;;;;;0.13;0.13;;;;;;;18.68;93.85;100503.03;5098115;28;20596;-79
2023/09/29 02:59:26;;;;;;;0.00;0.00;;;;;;;18.33;94.31;100491.97;5096397;28;20177;-79
2023/09/29 03:01:52;;;;;;;1.40;1.30;;;;;;;18.06;96.22;100482.69;5096425;28;20194;-79
2023/09/29 03:04:17;;;;;;;0.00;0.00;;;;;;;18.73;95.73;100515.75;5096608;28;20280;-79
2023/09/29 03:06:42;;;;;;;0.00;0.00;;;;;;;19.21;93.87;100524.59;5093278;28;20174;-81
2023/09/29 03:09:13;;;;;;;0.10;0.10;;;;;;;19.22;92.00;100498.47;5094500;28;20204;-79
2023/09/29 03:11:39;;;;;;;0.00;0.00;;;;;;;19.71;90.65;100520.75;5092821;28;20205;-79
2023/09/29 03:14:06;;;;;;;0.00;0.00;;;;;;;19.60;89.79;100517.78;5094279;28;20197;-79
2023/09/29 03:16:32;;;;;;;1.37;1.30;;;;;;;19.85;89.00;100522.97;5093325;28;20182;-79
2023/09/29 03:18:57;;;;;;;0.40;0.40;;;;;;;20.07;88.68;100533.19;5093138;28;20690;-79
2023/09/29 03:21:22;;;;;;;1.40;1.30;;;;;;;19.85;89.03;100512.66;5092420;28;20243;-79
2023/09/29 03:23:48;;;;;;;0.00;0.00;;;;;;;20.00;89.85;100527.53;5093132;28;20267;-79
2023/09/29 03:26:17;;;;;;;0.00;0.00;;;;;;;20.27;89.77;100535.88;5094287;28;20247;-79
2023/09/29 03:28:43;;;;;;;0.77;0.77;;;;;;;20.38;89.11;100536.78;5094275;28;20265;-78
2023/09/29 03:31:08;;;;;;;0.00;0.00;;;;;;;20.57;88.69;100535.91;5092382;28;20297;-80
2023/09/29 03:33:35;;;;;;;0.77;0.70;;;;;;;20.33;88.45;100521.28;5094850;28;20284;-79
2023/09/29 03:36:01;;;;;;;0.10;0.10;;;;;;;20.70;88.20;100537.28;5094854;28;20236;-80
2023/09/29 03:38:26;;;;;;;0.40;0.30;;;;;;;20.69;87.31;100516.25;5092854;28;20640;-79
2023/09/29 03:40:56;;;;;;;0.17;0.17;;;;;;;20.84;86.12;100531.09;5093572;28;20177;-79
2023/09/29 03:43:23;;;;;;;0.57;0.57;;;;;;;20.98;85.14;100529.28;5093854;28;20197;-80
2023/09/29 03:45:49;;;;;;;0.00;0.00;;;;;;;21.12;84.18;100533.38;5092774;28;20186;-80
2023/09/29 03:48:17;;;;;;;0.00;0.00;;;;;;;20.82;83.79;100514.78;5092870;28;20185;-80
2023/09/29 03:50:43;;;;;;;0.00;0.00;;;;;;;20.72;83.59;100510.72;5093382;28;20209;-79
2023/09/29 03:53:09;;;;;;;0.40;0.40;;;;;;;19.66;86.36;100475.91;5092451;28;20198;-81
2023/09/29 03:55:35;;;;;;;0.00;0.00;;;;;;;19.83;87.42;100489.25;5092557;28;20554;-79
2023/09/29 03:58:00;;;;;;;0.00;0.00;;;;;;;19.82;88.49;100494.00;5092681;28;20242;-79
2023/09/29 04:00:26;;;;;;;0.00;0.00;;;;;;;19.98;87.41;100496.63;5093325;28;20178;-80
2023/09/29 04:02:52;;;;;;;0.00;0.00;;;;;;;19.81;88.44;100495.16;5093786;28;20261;-80
2023/09/29 04:05:18;;;;;;;0.00;0.00;;;;;;;20.13;87.47;100511.50;5092969;28;20189;-80
2023/09/29 04:07:44;;;;;;;0.00;0.00;;;;;;;19.96;88.02;100506.47;5092839;28;20188;-79
2023/09/29 04:10:11;;;;;;;0.00;0.00;;;;;;;20.33;87.27;100532.38;5093688;28;20215;-81
2023/09/29 04:12:37;;;;;;;0.00;0.00;;;;;;;20.34;87.03;100525.66;5093789;28;20691;-81
2023/09/29 04:15:03;;;;;;;0.63;0.63;;;;;;;20.52;86.58;100537.03;5093552;28;20262;-80
2023/09/29 04:17:29;;;;;;;0.67;0.50;;;;;;;20.65;85.51;100513.41;5091064;28;20190;-80
2023/09/29 04:19:55;;;;;;;0.63;0.63;;;;;;;20.61;86.21;100523.66;5093276;28;20621;-79
2023/09/29 04:22:24;;;;;;;0.20;0.20;;;;;;;20.66;86.44;100526.09;5092801;28;20670;-80
2023/09/29 04:24:49;;;;;;;0.40;0.40;;;;;;;20.83;86.22;100535.84;5092113;28;20198;-80
2023/09/29 04:27:15;;;;;;;0.20;0.20;;;;;;;20.98;85.49;100528.47;5093892;28;20182;-80
2023/09/29 04:29:40;;;;;;;0.20;0.20;;;;;;;21.01;84.50;100514.63;5096513;28;20188;-81
2023/09/29 04:32:06;;;;;;;0.40;0.40;;;;;;;21.14;84.32;100520.72;5094133;28;20577;-81
2023/09/29 04:34:31;;;;;;;0.30;0.30;;;;;;;21.14;83.47;100517.94;5094949;28;20573;-79
2023/09/29 04:36:57;;;;;;;0.30;0.30;;;;;;;21.37;82.68;100528.91;5095662;28;20181;-79
2023/09/29 04:39:22;;;;;;;0.10;0.10;;;;;;;21.50;81.60;100515.50;5094687;28;20185;-80
2023/09/29 04:41:48;;;;;;;1.70;1.60;;;;;;;21.58;81.06;100511.63;5095753;28;20174;-81
2023/09/29 04:44:13;;;;;;;0.27;0.27;;;;;;;21.73;80.07;100521.69;5095730;28;20206;-80
2023/09/29 04:46:39;;;;;;;0.00;0.00;;;;;;;21.70;80.28;100528.03;5094898;28;20290;-81
2023/09/29 04:49:04;;;;;;;1.33;0.77;;;;;;;21.79;79.38;100511.00;5094164;28;20181;-80
2023/09/29 04:51:33;;;;;;;0.00;0.00;;;;;;;21.91;79.37;100519.03;5094982;28;20251;-79
2023/09/29 04:53:58;;;;;;;0.10;0.10;;;;;;;22.15;78.57;100520.44;5094691;28;20194;-81
2023/09/29 04:56:24;;;;;;;0.00;0.00;;;;;;;22.06;78.13;100490.16;5093253;28;20330;-80
2023/09/29 04:58:49;;;;;;;0.03;0.03;;;;;;;22.02;78.12;100494.88;5093245;28;20188;-81
2023/09/29 05:01:18;;;;;;;0.00;0.00;;;;;;;22.33;77.90;100514.97;5092398;28;20170;-81
2023/09/29 05:03:44;;;;;;;0.70;0.70;;;;;;;22.07;77.43;100485.38;5092952;28;20204;-81
2023/09/29 05:06:09;;;;;;;0.10;0.10;;;;;;;22.08;77.74;100495.31;5092226;28;20182;-81
2023/09/29 05:08:36;;;;;;;0.20;0.20;;;;;;;22.01;78.21;100493.28;5093018;28;20181;-80
2023/09/29 05:11:02;;;;;;;0.00;0.00;;;;;;;21.88;78.32;100490.00;5092455;28;20209;-81
2023/09/29 05:13:32;;;;;;;0.00;0.00;;;;;;;22.08;77.72;100495.31;5094302;28;20202;-80
2023/09/29 05:15:57;;;;;;;0.00;0.00;;;;;;;21.95;78.08;100486.47;5094001;28;20748;-80
2023/09/29 05:18:23;;;;;;;0.00;0.00;;;;;;;22.00;78.00;100483.34;5092672;28;20280;-81
2023/09/29 05:20:48;;;;;;;0.00;0.00;;;;;;;21.99;77.98;100476.16;5093927;28;20174;-81
2023/09/29 05:23:14;;;;;;;0.00;0.00;;;;;;;22.05;77.80;100477.41;5092096;28;20208;-81
2023/09/29 05:25:44;;;;;;;0.00;0.00;;;;;;;21.96;77.80;100474.16;5092648;28;20677;-81
2023/09/29 05:28:10;;;;;;;0.00;0.00;;;;;;;21.79;78.12;100452.56;5093249;28;20174;-80
2023/09/29 05:30:35;;;;;;;0.13;0.13;;;;;;;21.71;78.64;100443.41;5090754;28;20193;-79
2023/09/29 05:33:00;;;;;;;0.00;0.00;;;;;;;21.42;79.71;100444.38;5091766;28;20198;-80
2023/09/29 05:35:26;;;;;;;1.37;1.27;;;;;;;21.36;79.98;100449.47;5091532;28;20182;-81
2023/09/29 05:37:51;;;;;;;1.20;1.10;;;;;;;21.37;79.97;100440.75;5091364;28;20203;-81
2023/09/29 05:40:16;;;;;;;0.00;0.00;;;;;;;21.37;80.10;100451.88;5092773;28;20184;-79
2023/09/29 05:42:43;;;;;;;1.50;1.37;;;;;;;21.54;79.81;100457.94;5092403;28;20174;-80
2023/09/29 05:45:11;;;;;;;0.10;0.10;;;;;;;21.55;79.54;100460.34;5091475;28;20222;-81
2023/09/29 05:47:36;;;;;;;0.00;0.00;;;;;;;21.67;78.86;100460.03;5092869;28;20635;-81
2023/09/29 05:50:03;;;;;;;0.33;0.33;;;;;;;21.81;78.54;100459.34;5092416;28;20185;-81
2023/09/29 05:52:28;;;;;;;1.57;1.47;;;;;;;21.80;77.82;100443.84;5091123;28;20208;-80
2023/09/29 05:54:53;;;;;;;1.27;1.27;;;;;;;21.67;77.75;100435.00;5090990;28;20205;-80
2023/09/29 05:57:19;;;;;;;0.00;0.00;;;;;;;21.80;78.00;100449.41;5092465;28;20244;-80
2023/09/29 05:59:44;;;;;;;0.00;0.00;;;;;;;21.85;77.87;100442.69;5091423;28;20169;-79
2023/09/29 06:02:09;;;;;;;0.00;0.00;;;;;;;21.98;77.30;100444.75;5091036;28;20181;-80
2023/09/29 06:04:35;;;;;;;0.00;0.00;;;;;;;22.18;76.85;100452.84;5091612;28;20811;-79
2023/09/29 06:07:00;;;;;;;0.00;0.00;;;;;;;22.21;76.60;100446.50;5091565;28;20178;-79
2023/09/29 06:09:26;;;;;;;0.00;0.00;;;;;;;21.78;77.93;100437.06;5090341;28;20178;-79
2023/09/29 06:11:51;;;;;;;0.00;0.00;;;;;;;21.92;78.13;100443.53;5091064;28;20620;-79
2023/09/29 06:14:17;;;;;;;0.00;0.00;;;;;;;22.07;78.14;100457.56;5090108;28;20730;-78
2023/09/29 06:16:42;;;;;;;1.13;1.13;;;;;;;21.95;78.20;100439.97;5090249;28;20190;-79
2023/09/29 06:19:07;;;;;;;0.90;0.63;;;;;;;21.85;78.18;100418.47;5090091;28;20234;-79
2023/09/29 06:21:33;;;;;;;0.20;0.20;;;;;;;22.03;77.97;100451.16;5090882;28;20186;-79
2023/09/29 06:23:58;;;;;;;2.27;1.80;;;;;;;22.13;77.31;100454.03;5091394;28;20198;-79
2023/09/29 06:26:23;;;;;;;0.00;0.00;;;;;;;22.04;77.58;100455.53;5091433;28;20246;-79
2023/09/29 06:28:49;;;;;;;0.00;0.00;;;;;;;21.92;77.89;100453.84;5091542;28;20178;-79
2023/09/29 06:31:14;;;;;;;0.50;0.50;;;;;;;22.08;77.37;100453.59;5090980;28;20200;-80
2023/09/29 06:33:39;;;;;;;0.10;0.10;;;;;;;22.25;77.13;100481.50;5090511;28;20208;-79
2023/09/29 06:36:05;;;;;;;0.00;0.00;;;;;;;22.48;76.36;100483.22;5091531;28;20174;-80
2023/09/29 06:38:31;;;;;;;0.63;0.63;;;;;;;22.40;76.47;100470.44;5091430;28;20180;-80
2023/09/29 06:40:58;;;;;;;1.07;0.97;;;;;;;22.44;76.11;100474.84;5092119;28;20178;-80
2023/09/29 06:43:23;;;;;;;7.63;1.03;;;;;;;22.60;75.50;100496.00;5095128;28;20201;-79
2023/09/29 06:45:49;;;;;;;0.00;0.00;;;;;;;22.79;74.89;100507.59;5094063;28;20182;-80
2023/09/29 06:48:15;;;;;;;8.07;1.33;;;;;;;22.60;75.43;100490.44;5094418;28;20181;-81
2023/09/29 06:50:40;;;;;;;0.17;0.17;;;;;;;22.37;75.96;100482.34;5095278;28;20174;-80
2023/09/29 06:53:05;;;;;;;0.30;0.30;;;;;;;22.65;75.09;100488.03;5095852;28;20566;-80
2023/09/29 06:55:31;;;;;;;0.50;0.50;;;;;;;22.71;74.85;100480.09;5096100;28;20260;-81
2023/09/29 06:57:58;;;;;;;0.00;0.00;;;;;;;22.83;74.94;100493.69;5094507;28;20178;-79
2023/09/29 07:00:24;;;;;;;0.00;0.00;;;;;;;22.96;74.96;100496.94;5095327;28;20220;-81
2023/09/29 07:02:49;;;;;;;0.00;0.00;;;;;;;22.75;75.12;100467.78;5095628;28;20198;-81
2023/09/29 07:05:15;;;;;;;0.00;0.00;;;;;;;22.97;74.86;100488.16;5095351;28;20229;-81
2023/09/29 07:07:40;;;;;;;0.40;0.40;;;;;;;23.06;74.83;100482.22;5094482;28;20274;-80
2023/09/29 07:10:06;;;;;;;0.00;0.00;;;;;;;23.15;74.92;100480.66;5097686;28;20173;-81
2023/09/29 07:12:32;;;;;;;0.63;0.63;;;;;;;23.28;74.23;100483.03;5090191;28;20699;-81
2023/09/29 07:14:57;;;;;;;0.60;0.60;;;;;;;23.06;75.01;100473.88;5097275;28;20557;-80
2023/09/29 07:17:22;;;;;;;0.20;0.20;;;;;;;22.83;76.43;100471.41;5096298;28;20455;-81
2023/09/29 07:19:48;;;;;;;0.10;0.10;;;;;;;23.01;76.23;100482.63;5096327;28;20306;-81
2023/09/29 07:22:13;;;;;;;0.83;0.83;;;;;;;23.16;76.46;100487.03;5097404;28;20196;-81
2023/09/29 07:24:42;;;;;;;0.00;0.00;;;;;;;22.90;77.29;100474.22;5096898;28;20387;-81
2023/09/29 07:27:10;;;;;;;3.40;0.93;;;;;;;22.84;77.23;100473.00;5097232;28;20249;-81
2023/09/29 07:29:35;;;;;;;0.67;0.67;;;;;;;22.58;77.26;100443.47;5096872;28;20174;-79
2023/09/29 07:32:01;;;;;;;0.33;0.33;;;;;;;22.71;76.82;100453.06;5096367;28;20200;-81
2023/09/29 07:34:27;;;;;;;0.00;0.00;;;;;;;22.50;76.56;100428.72;5095810;28;20209;-79
2023/09/29 07:36:53;;;;;;;0.93;0.90;;;;;;;22.80;76.44;100458.25;5096049;28;20196;-81
2023/09/29 07:39:20;;;;;;;0.00;0.00;;;;;;;22.60;76.13;100437.50;5096657;28;20261;-80
2023/09/29 07:41:46;;;;;;;0.40;0.40;;;;;;;22.66;76.17;100438.72;5095854;28;20174;-81
2023/09/29 07:44:12;;;;;;;0.57;0.57;;;;;;;22.74;76.31;100446.69;5096106;28;20267;-81
2023/09/29 07:46:38;;;;;;;0.00;0.00;;;;;;;22.88;76.18;100465.47;5094562;28;20222;-81
2023/09/29 07:49:03;;;;;;;0.40;0.40;;;;;;;23.01;75.30;100463.13;5094767;28;20189;-81
2023/09/29 07:51:29;;;;;;;0.00;0.00;;;;;;;22.92;75.25;100451.53;5095285;28;20641;-80
2023/09/29 07:53:57;;;;;;;0.00;0.00;;;;;;;23.23;74.84;100473.09;5096157;28;20262;-81
2023/09/29 07:56:22;;;;;;;0.10;0.10;;;;;;;23.17;74.39;100471.09;5094493;28;20272;-81
2023/09/29 07:58:47;;;;;;;0.90;0.77;;;;;;;23.12;74.39;100466.69;5095368;28;20673;-80
2023/09/29 08:01:12;;;;;;;2.23;1.47;;;;;;;22.96;74.83;100458.72;5093110;28;20189;-81
2023/09/29 08:03:38;;;;;;;0.10;0.10;;;;;;;23.15;74.58;100477.06;5093237;28;20679;-80
2023/09/29 08:06:04;;;;;;;1.03;1.03;;;;;;;22.88;75.29;100468.25;5093603;28;20189;-80
2023/09/29 08:08:29;;;;;;;0.30;0.30;;;;;;;22.53;76.91;100454.97;5094884;28;20258;-79
2023/09/29 08:10:55;;;;;;;0.00;0.00;;;;;;;22.79;76.63;100471.38;5092364;28;20300;-80
2023/09/29 08:13:23;;;;;;;0.00;0.00;;;;;;;22.84;76.74;100467.44;5092663;28;20231;-80
2023/09/29 08:15:49;;;;;;;0.00;0.00;;;;;;;22.96;77.86;100464.28;5093077;28;20193;-79
2023/09/29 08:18:14;;;;;;;1.20;1.20;;;;;;;22.70;78.34;100461.78;5094130;28;20185;-79
2023/09/29 08:20:41;;;;;;;0.80;0.80;;;;;;;22.55;79.18;100452.59;5092206;28;20186;-79
2023/09/29 08:23:06;;;;;;;29.07;0.87;;;;;;;22.50;79.58;100459.34;5094166;28;20197;-79
2023/09/29 08:25:33;;;;;;;0.10;0.10;;;;;;;22.93;79.23;100469.84;5094002;28;20180;-80
2023/09/29 08:28:02;;;;;;;0.30;0.30;;;;;;;23.15;78.01;100466.72;5093993;28;20525;-78
2023/09/29 08:30:27;;;;;;;0.27;0.27;;;;;;;22.84;78.86;100459.06;5093866;28;20182;-79
2023/09/29 08:32:53;;;;;;;3.03;1.03;;;;;;;22.53;80.30;100443.84;5093730;28;20258;-78
2023/09/29 08:35:18;;;;;;;0.83;0.57;;;;;;;22.45;80.67;100439.44;5093687;28;20209;-78
2023/09/29 08:37:43;;;;;;;1.03;1.00;;;;;;;22.42;80.62;100460.53;5094119;28;20186;-80
2023/09/29 08:40:12;;;;;;;1.30;1.20;;;;;;;22.48;80.58;100467.31;5093720;28;20178;-79
2023/09/29 08:42:38;;;;;;;1.40;1.30;;;;;;;22.31;80.32;100453.31;5074971;28;20196;-79
2023/09/29 08:45:13;;;;;;;1.17;1.13;;;;;;;22.52;80.17;100472.88;5093516;28;20549;-79
2023/09/29 08:47:40;;;;;;;4.63;1.13;;;;;;;22.20;80.40;100456.81;5092712;28;20621;-79
2023/09/29 08:50:07;;;;;;;1.20;1.10;;;;;;;22.12;80.89;100446.84;5092273;28;20186;-79
2023/09/29 08:52:32;;;;;;;12.97;1.57;;;;;;;22.28;80.54;100446.53;5091923;28;20297;-79
2023/09/29 08:55:03;;;;;;;1.00;1.00;;;;;;;22.44;79.53;100455.34;5093832;28;20699;-80
2023/09/29 08:57:28;;;;;;;1.07;0.97;;;;;;;22.67;78.62;100463.38;5093999;28;20547;-79
2023/09/29 08:59:54;;;;;;;0.20;0.20;;;;;;;22.78;77.82;100460.63;5093331;28;20182;-80
2023/09/29 09:02:20;;;;;;;1.53;1.43;;;;;;;22.53;78.50;100446.63;5092378;28;20178;-79
2023/09/29 09:04:47;;;;;;;3.70;0.87;;;;;;;22.76;77.99;100457.44;5092352;28;20369;-78
2023/09/29 09:07:13;;;;;;;1.90;1.03;;;;;;;22.84;77.86;100454.28;5091917;28;20181;-80
2023/09/29 09:09:45;;;;;;;0.77;0.77;;;;;;;22.81;77.12;100451.47;5091825;28;20555;-80
2023/09/29 09:12:11;;;;;;;1.47;1.33;;;;;;;22.84;77.06;100442.34;5092637;28;20211;-79
2023/09/29 09:14:40;;;;;;;1.63;1.53;;;;;;;22.85;76.17;100441.97;5088689;28;20285;-80
2023/09/29 09:17:07;;;;;;;0.00;0.00;;;;;;;23.02;75.92;100451.56;5088881;28;20270;-80
2023/09/29 09:19:50;;;;;;;1.20;1.13;;;;;;;23.18;74.81;100455.97;5091531;28;20331;-80
2023/09/29 09:22:25;;;;;;;1.40;1.30;;;;;;;23.30;74.41;100453.59;5091943;28;20239;-78
2023/09/29 09:24:57;;;;;;;0.50;0.50;;;;;;;23.29;74.29;100453.97;5092002;28;20197;-79
2023/09/29 09:27:22;;;;;;;0.67;0.53;;;;;;;23.26;74.64;100443.63;5090764;28;20196;-79
2023/09/29 09:29:47;;;;;;;0.10;0.10;;;;;;;23.38;74.00;100446.81;5090667;28;20186;-79
2023/09/29 09:32:14;;;;;;;0.10;0.10;;;;;;;23.53;73.82;100452.38;5090083;28;20213;-79
2023/09/29 09:34:41;;;;;;;0.20;0.20;;;;;;;23.53;74.22;100455.97;5090567;28;20675;-79
2023/09/29 09:37:07;;;;;;;0.70;0.70;;;;;;;23.45;73.68;100434.88;5092165;28;20186;-78
2023/09/29 09:39:34;;;;;;;1.47;1.33;;;;;;;23.29;74.13;100429.69;5090797;28;20529;-79
2023/09/29 09:42:03;;;;;;;0.27;0.27;;;;;;;23.36;73.85;100435.25;5090970;28;20184;-79
2023/09/29 09:44:28;;;;;;;0.50;0.30;;;;;;;23.66;73.47;100459.19;5090906;28;20206;-80
2023/09/29 09:47:10;;;;;;;1.07;1.07;;;;;;;23.63;73.64;100454.41;5097806;28;20185;-79
2023/09/29 09:49:43;;;;;;;0.70;0.70;;;;;;;23.51;73.49;100430.47;5095930;28;20178;-80
2023/09/29 09:52:12;;;;;;;1.47;1.37;;;;;;;23.60;73.18;100452.41;5093772;28;20220;-80
2023/09/29 09:54:49;;;;;;;0.20;0.20;;;;;;;24.18;72.22;100477.03;5094247;28;20197;-80
2023/09/29 09:57:22;;;;;;;0.77;0.77;;;;;;;24.00;72.63;100443.56;5093772;28;20264;-80
2023/09/29 09:59:49;;;;;;;1.47;1.37;;;;;;;23.73;72.28;100431.28;5092223;28;20192;-79
2023/09/29 10:02:16;;;;;;;1.07;1.07;;;;;;;23.91;72.60;100434.81;5093314;28;20174;-80
2023/09/29 10:04:43;;;;;;;0.00;0.00;;;;;;;24.42;71.46;100474.56;5093407;28;20566;-80
2023/09/29 10:07:08;;;;;;;0.00;0.00;;;;;;;24.34;71.54;100445.88;5092139;28;20186;-81
2023/09/29 10:09:45;;;;;;;0.00;0.00;;;;;;;24.61;71.11;100454.56;5092210;28;20183;-80
2023/09/29 10:12:27;;;;;;;0.00;0.00;;;;;;;24.53;71.07;100447.41;5091918;28;20216;-81
2023/09/29 10:14:56;;;;;;;0.00;0.00;;;;;;;24.75;71.45;100462.06;5095170;28;20710;-80
2023/09/29 10:17:22;;;;;;;0.00;0.00;;;;;;;24.59;71.71;100429.00;5097991;28;20175;-81
2023/09/29 10:19:51;;;;;;;0.00;0.00;;;;;;;24.66;71.94;100445.72;5096292;28;20576;-81
2023/09/29 10:22:24;;;;;;;0.00;0.00;;;;;;;24.43;73.35;100451.03;5097670;28;20190;-81
2023/09/29 10:24:56;;;;;;;0.00;0.00;;;;;;;24.64;72.49;100445.34;5095801;28;20783;-81
2023/09/29 10:27:39;;;;;;;0.00;0.00;;;;;;;24.89;71.09;100437.63;5097243;28;20187;-80
2023/09/29 10:30:18;;;;;;;0.00;0.00;;;;;;;24.68;71.36;100426.56;5097170;28;20175;-80
2023/09/29 10:32:46;;;;;;;0.00;0.00;;;;;;;24.72;71.86;100427.31;5095588;28;20268;-81
2023/09/29 10:35:18;;;;;;;0.00;0.00;;;;;;;25.12;70.76;100451.06;5097713;28;20187;-79
2023/09/29 10:37:54;;;;;;;0.00;0.00;;;;;;;25.29;70.46;100443.75;5096334;28;20249;-80
2023/09/29 10:40:31;;;;;;;0.00;0.00;;;;;;;25.48;70.09;100445.19;5096393;28;20205;-81
2023/09/29 10:43:01;;;;;;;0.00;0.00;;;;;;;25.27;69.65;100411.81;5088751;28;20669;-81
2023/09/29 10:45:36;;;;;;;0.00;0.00;;;;;;;25.45;69.53;100435.59;5095569;28;20734;-81
2023/09/29 10:48:06;;;;;;;0.00;0.00;;;;;;;25.66;69.71;100451.41;5095556;28;20273;-81
2023/09/29 10:50:41;;;;;;;0.00;0.00;;;;;;;25.77;68.67;100440.97;5096451;28;20216;-81
2023/09/29 10:53:07;;;;;;;0.00;0.00;;;;;;;25.09;70.39;100397.97;5096372;28;20628;-81
2023/09/29 10:55:44;;;;;;;0.00;0.00;;;;;;;25.48;70.10;100434.81;5096439;28;20215;-81
2023/09/29 10:58:11;;;;;;;0.00;0.00;;;;;;;25.53;70.23;100427.97;5096374;28;20179;-81
2023/09/29 11:00:47;;;;;;;0.00;0.00;;;;;;;25.33;70.79;100405.38;5094186;28;20260;-80
2023/09/29 11:03:26;;;;;;;0.27;0.20;;;;;;;25.29;70.89;100407.38;5094729;28;20626;-81
2023/09/29 11:05:55;;;;;;;0.00;0.00;;;;;;;25.89;69.82;100424.81;5096386;28;20581;-81
2023/09/29 11:08:33;;;;;;;0.00;0.00;;;;;;;26.18;68.69;100417.69;5087295;28;20181;-80
2023/09/29 11:11:03;;;;;;;0.83;0.83;;;;;;;26.35;67.06;100413.91;5095253;28;20188;-81
2023/09/29 11:13:29;;;;;;;0.00;0.00;;;;;;;25.96;67.77;100383.56;5095749;28;20283;-81
2023/09/29 11:15:56;;;;;;;0.10;0.10;;;;;;;26.23;65.93;100391.25;5094256;28;20212;-81
2023/09/29 11:18:27;;;;;;;0.00;0.00;;;;;;;25.98;66.37;100380.34;5095449;28;20181;-80
2023/09/29 11:20:53;;;;;;;3.60;2.00;;;;;;;26.00;65.81;100384.28;5095213;28;20208;-80
2023/09/29 11:23:18;;;;;;;1.10;1.07;;;;;;;25.90;65.03;100368.44;5095268;28;20231;-81